sensor_id;sensor_type;location;lat;lon;timestamp;P1;durP1;ratioP1;P2;durP2;ratioP2
20146;SDS011;10234;50.856;15.716;2022-10-17T00:01:41;17.38;;;13.65;;
20146;SDS011;10234;50.856;15.716;2022-10-17T00:04:09;17.73;;;13.70;;
20146;SDS011;10234;50.856;15.716;2022-10-17T00:06:36;17.38;;;13.07;;
20146;SDS011;10234;50.856;15.716;2022-10-17T00:09:03;15.27;;;12.85;;
20146;SDS011;10234;50.856;15.716;2022-10-17T00:11:32;17.48;;;14.25;;
20146;SDS011;10234;50.856;15.716;2022-10-17T00:14:00;18.25;;;14.50;;
20146;SDS011;10234;50.856;15.716;2022-10-17T00:16:28;18.60;;;14.70;;
20146;SDS011;10234;50.856;15.716;2022-10-17T00:18:56;21.25;;;16.25;;
20146;SDS011;10234;50.856;15.716;2022-10-17T00:21:24;20.00;;;15.32;;
20146;SDS011;10234;50.856;15.716;2022-10-17T00:23:51;19.73;;;15.05;;
20146;SDS011;10234;50.856;15.716;2022-10-17T00:26:18;19.75;;;14.07;;
20146;SDS011;10234;50.856;15.716;2022-10-17T00:28:46;18.77;;;13.82;;
20146;SDS011;10234;50.856;15.716;2022-10-17T00:31:15;19.42;;;14.40;;
20146;SDS011;10234;50.856;15.716;2022-10-17T00:33:43;19.42;;;14.60;;
20146;SDS011;10234;50.856;15.716;2022-10-17T00:36:11;18.73;;;14.70;;
20146;SDS011;10234;50.856;15.716;2022-10-17T00:38:40;21.70;;;15.02;;
20146;SDS011;10234;50.856;15.716;2022-10-17T00:41:08;16.58;;;12.93;;
20146;SDS011;10234;50.856;15.716;2022-10-17T00:43:49;17.98;;;13.52;;
20146;SDS011;10234;50.856;15.716;2022-10-17T00:46:23;18.63;;;13.52;;
20146;SDS011;10234;50.856;15.716;2022-10-17T00:48:51;16.30;;;12.95;;
20146;SDS011;10234;50.856;15.716;2022-10-17T00:51:20;17.58;;;13.88;;
20146;SDS011;10234;50.856;15.716;2022-10-17T00:53:51;18.50;;;14.10;;
20146;SDS011;10234;50.856;15.716;2022-10-17T00:56:18;18.23;;;14.38;;
20146;SDS011;10234;50.856;15.716;2022-10-17T00:58:45;20.30;;;14.63;;
20146;SDS011;10234;50.856;15.716;2022-10-17T01:01:12;20.00;;;14.10;;
20146;SDS011;10234;50.856;15.716;2022-10-17T01:03:41;18.35;;;13.30;;
20146;SDS011;10234;50.856;15.716;2022-10-17T01:06:08;18.38;;;14.23;;
20146;SDS011;10234;50.856;15.716;2022-10-17T01:08:35;19.45;;;13.77;;
20146;SDS011;10234;50.856;15.716;2022-10-17T01:11:04;20.30;;;13.82;;
20146;SDS011;10234;50.856;15.716;2022-10-17T01:13:40;18.55;;;13.88;;
20146;SDS011;10234;50.856;15.716;2022-10-17T01:16:12;17.73;;;13.52;;
20146;SDS011;10234;50.856;15.716;2022-10-17T01:18:50;19.13;;;13.85;;
20146;SDS011;10234;50.856;15.716;2022-10-17T01:33:11;17.67;;;14.05;;
20146;SDS011;10234;50.856;15.716;2022-10-17T01:35:45;18.17;;;13.98;;
20146;SDS011;10234;50.856;15.716;2022-10-17T01:38:17;19.23;;;14.38;;
20146;SDS011;10234;50.856;15.716;2022-10-17T01:40:49;19.90;;;13.80;;
20146;SDS011;10234;50.856;15.716;2022-10-17T01:43:21;18.80;;;13.70;;
20146;SDS011;10234;50.856;15.716;2022-10-17T01:45:56;18.35;;;12.52;;
20146;SDS011;10234;50.856;15.716;2022-10-17T01:48:28;16.60;;;12.60;;
20146;SDS011;10234;50.856;15.716;2022-10-17T01:51:02;20.25;;;13.25;;
20146;SDS011;10234;50.856;15.716;2022-10-17T01:53:35;18.08;;;12.88;;
20146;SDS011;10234;50.856;15.716;2022-10-17T01:58:41;18.77;;;13.55;;
20146;SDS011;10234;50.856;15.716;2022-10-17T02:01:12;21.77;;;14.95;;
20146;SDS011;10234;50.856;15.716;2022-10-17T02:03:41;19.05;;;14.13;;
20146;SDS011;10234;50.856;15.716;2022-10-17T02:06:10;19.92;;;14.75;;
20146;SDS011;10234;50.856;15.716;2022-10-17T02:08:40;20.55;;;15.15;;
20146;SDS011;10234;50.856;15.716;2022-10-17T02:11:10;19.75;;;14.80;;
20146;SDS011;10234;50.856;15.716;2022-10-17T02:13:44;24.55;;;16.90;;
20146;SDS011;10234;50.856;15.716;2022-10-17T02:16:35;24.48;;;17.42;;
20146;SDS011;10234;50.856;15.716;2022-10-17T02:19:13;24.92;;;16.85;;
20146;SDS011;10234;50.856;15.716;2022-10-17T02:21:56;25.27;;;16.27;;
20146;SDS011;10234;50.856;15.716;2022-10-17T02:24:36;22.13;;;15.82;;
20146;SDS011;10234;50.856;15.716;2022-10-17T02:27:12;23.23;;;14.85;;
20146;SDS011;10234;50.856;15.716;2022-10-17T02:29:44;19.92;;;13.52;;
20146;SDS011;10234;50.856;15.716;2022-10-17T02:32:15;20.85;;;15.38;;
20146;SDS011;10234;50.856;15.716;2022-10-17T02:34:50;21.98;;;15.20;;
20146;SDS011;10234;50.856;15.716;2022-10-17T02:37:22;21.58;;;15.80;;
20146;SDS011;10234;50.856;15.716;2022-10-17T02:39:52;22.00;;;15.57;;
20146;SDS011;10234;50.856;15.716;2022-10-17T02:42:21;23.38;;;15.70;;
20146;SDS011;10234;50.856;15.716;2022-10-17T02:44:49;24.45;;;16.95;;
20146;SDS011;10234;50.856;15.716;2022-10-17T02:47:17;23.13;;;16.63;;
20146;SDS011;10234;50.856;15.716;2022-10-17T02:49:51;22.48;;;16.08;;
20146;SDS011;10234;50.856;15.716;2022-10-17T02:52:21;22.35;;;17.10;;
20146;SDS011;10234;50.856;15.716;2022-10-17T02:54:53;22.50;;;16.80;;
20146;SDS011;10234;50.856;15.716;2022-10-17T02:57:26;21.75;;;16.08;;
20146;SDS011;10234;50.856;15.716;2022-10-17T02:59:56;22.15;;;15.43;;
20146;SDS011;10234;50.856;15.716;2022-10-17T03:02:24;23.52;;;16.15;;
20146;SDS011;10234;50.856;15.716;2022-10-17T03:04:52;44.25;;;17.38;;
20146;SDS011;10234;50.856;15.716;2022-10-17T03:07:20;63.78;;;18.00;;
20146;SDS011;10234;50.856;15.716;2022-10-17T03:09:47;33.72;;;17.25;;
20146;SDS011;10234;50.856;15.716;2022-10-17T03:12:14;38.47;;;18.90;;
20146;SDS011;10234;50.856;15.716;2022-10-17T03:14:41;44.80;;;18.65;;
20146;SDS011;10234;50.856;15.716;2022-10-17T03:17:08;52.72;;;17.73;;
20146;SDS011;10234;50.856;15.716;2022-10-17T03:19:35;82.63;;;19.02;;
20146;SDS011;10234;50.856;15.716;2022-10-17T03:22:03;49.88;;;19.00;;
20146;SDS011;10234;50.856;15.716;2022-10-17T03:24:30;40.67;;;17.95;;
20146;SDS011;10234;50.856;15.716;2022-10-17T03:26:57;25.55;;;16.05;;
20146;SDS011;10234;50.856;15.716;2022-10-17T03:29:25;23.88;;;15.88;;
20146;SDS011;10234;50.856;15.716;2022-10-17T03:31:52;24.80;;;16.27;;
20146;SDS011;10234;50.856;15.716;2022-10-17T03:34:19;29.27;;;15.13;;
20146;SDS011;10234;50.856;15.716;2022-10-17T03:36:46;38.35;;;16.40;;
20146;SDS011;10234;50.856;15.716;2022-10-17T03:39:14;38.10;;;17.10;;
20146;SDS011;10234;50.856;15.716;2022-10-17T03:41:41;136.30;;;20.58;;
20146;SDS011;10234;50.856;15.716;2022-10-17T03:44:08;29.65;;;15.77;;
20146;SDS011;10234;50.856;15.716;2022-10-17T03:46:36;44.63;;;15.93;;
20146;SDS011;10234;50.856;15.716;2022-10-17T03:49:03;29.85;;;16.98;;
20146;SDS011;10234;50.856;15.716;2022-10-17T03:51:31;73.40;;;17.83;;
20146;SDS011;10234;50.856;15.716;2022-10-17T03:53:58;27.13;;;15.63;;
20146;SDS011;10234;50.856;15.716;2022-10-17T03:56:26;42.53;;;15.40;;
20146;SDS011;10234;50.856;15.716;2022-10-17T03:58:53;58.00;;;16.90;;
20146;SDS011;10234;50.856;15.716;2022-10-17T04:01:21;29.60;;;16.23;;
20146;SDS011;10234;50.856;15.716;2022-10-17T04:03:48;67.70;;;17.05;;
20146;SDS011;10234;50.856;15.716;2022-10-17T04:06:16;260.52;;;22.33;;
20146;SDS011;10234;50.856;15.716;2022-10-17T04:08:43;138.60;;;17.80;;
20146;SDS011;10234;50.856;15.716;2022-10-17T04:11:12;96.45;;;16.27;;
20146;SDS011;10234;50.856;15.716;2022-10-17T04:13:42;25.83;;;15.27;;
20146;SDS011;10234;50.856;15.716;2022-10-17T04:16:11;90.40;;;15.95;;
20146;SDS011;10234;50.856;15.716;2022-10-17T04:18:38;42.05;;;15.57;;
20146;SDS011;10234;50.856;15.716;2022-10-17T04:21:05;45.75;;;16.42;;
20146;SDS011;10234;50.856;15.716;2022-10-17T04:23:33;35.08;;;16.38;;
20146;SDS011;10234;50.856;15.716;2022-10-17T04:26:01;36.55;;;15.50;;
20146;SDS011;10234;50.856;15.716;2022-10-17T04:28:28;46.00;;;16.77;;
20146;SDS011;10234;50.856;15.716;2022-10-17T04:30:57;111.50;;;20.40;;
20146;SDS011;10234;50.856;15.716;2022-10-17T04:33:25;20.17;;;14.18;;
20146;SDS011;10234;50.856;15.716;2022-10-17T04:35:55;19.95;;;13.90;;
20146;SDS011;10234;50.856;15.716;2022-10-17T04:38:22;20.73;;;15.32;;
20146;SDS011;10234;50.856;15.716;2022-10-17T04:40:49;20.38;;;14.57;;
20146;SDS011;10234;50.856;15.716;2022-10-17T04:43:16;23.15;;;14.95;;
20146;SDS011;10234;50.856;15.716;2022-10-17T04:45:43;21.58;;;15.15;;
20146;SDS011;10234;50.856;15.716;2022-10-17T04:48:12;19.95;;;15.20;;
20146;SDS011;10234;50.856;15.716;2022-10-17T04:50:39;21.10;;;14.65;;
20146;SDS011;10234;50.856;15.716;2022-10-17T04:53:06;21.92;;;14.82;;
20146;SDS011;10234;50.856;15.716;2022-10-17T04:55:35;19.90;;;14.77;;
20146;SDS011;10234;50.856;15.716;2022-10-17T04:58:03;90.50;;;17.67;;
20146;SDS011;10234;50.856;15.716;2022-10-17T05:00:30;101.70;;;18.10;;
20146;SDS011;10234;50.856;15.716;2022-10-17T05:02:58;84.47;;;18.35;;
20146;SDS011;10234;50.856;15.716;2022-10-17T05:05:26;48.20;;;17.98;;
20146;SDS011;10234;50.856;15.716;2022-10-17T05:07:53;66.47;;;16.33;;
20146;SDS011;10234;50.856;15.716;2022-10-17T05:10:20;53.10;;;17.52;;
20146;SDS011;10234;50.856;15.716;2022-10-17T05:12:47;104.50;;;20.00;;
20146;SDS011;10234;50.856;15.716;2022-10-17T05:15:14;74.25;;;19.17;;
20146;SDS011;10234;50.856;15.716;2022-10-17T05:17:41;54.15;;;17.08;;
20146;SDS011;10234;50.856;15.716;2022-10-17T05:20:09;52.13;;;18.80;;
20146;SDS011;10234;50.856;15.716;2022-10-17T05:22:38;31.75;;;17.48;;
20146;SDS011;10234;50.856;15.716;2022-10-17T05:25:05;46.55;;;17.83;;
20146;SDS011;10234;50.856;15.716;2022-10-17T05:27:32;38.15;;;17.75;;
20146;SDS011;10234;50.856;15.716;2022-10-17T05:29:59;31.02;;;17.20;;
20146;SDS011;10234;50.856;15.716;2022-10-17T05:32:26;51.03;;;19.83;;
20146;SDS011;10234;50.856;15.716;2022-10-17T05:34:53;75.13;;;20.15;;
20146;SDS011;10234;50.856;15.716;2022-10-17T05:37:21;53.85;;;18.55;;
20146;SDS011;10234;50.856;15.716;2022-10-17T05:39:49;67.30;;;17.80;;
20146;SDS011;10234;50.856;15.716;2022-10-17T05:42:18;59.00;;;19.10;;
20146;SDS011;10234;50.856;15.716;2022-10-17T05:44:44;210.73;;;22.05;;
20146;SDS011;10234;50.856;15.716;2022-10-17T05:47:11;86.55;;;17.80;;
20146;SDS011;10234;50.856;15.716;2022-10-17T05:49:39;157.13;;;20.08;;
20146;SDS011;10234;50.856;15.716;2022-10-17T05:52:06;197.63;;;23.98;;
20146;SDS011;10234;50.856;15.716;2022-10-17T05:54:33;112.57;;;19.92;;
20146;SDS011;10234;50.856;15.716;2022-10-17T05:57:01;122.97;;;22.23;;
20146;SDS011;10234;50.856;15.716;2022-10-17T05:59:28;144.38;;;23.08;;
20146;SDS011;10234;50.856;15.716;2022-10-17T06:01:55;97.88;;;21.48;;
20146;SDS011;10234;50.856;15.716;2022-10-17T06:04:22;156.02;;;23.17;;
20146;SDS011;10234;50.856;15.716;2022-10-17T06:06:51;103.72;;;20.48;;
20146;SDS011;10234;50.856;15.716;2022-10-17T06:09:20;100.07;;;19.45;;
20146;SDS011;10234;50.856;15.716;2022-10-17T06:11:47;28.92;;;16.95;;
20146;SDS011;10234;50.856;15.716;2022-10-17T06:14:16;43.65;;;17.75;;
20146;SDS011;10234;50.856;15.716;2022-10-17T06:16:42;45.83;;;17.08;;
20146;SDS011;10234;50.856;15.716;2022-10-17T06:19:09;27.02;;;15.13;;
20146;SDS011;10234;50.856;15.716;2022-10-17T06:21:37;22.92;;;14.70;;
20146;SDS011;10234;50.856;15.716;2022-10-17T06:24:04;17.75;;;13.50;;
20146;SDS011;10234;50.856;15.716;2022-10-17T06:26:31;16.67;;;13.60;;
20146;SDS011;10234;50.856;15.716;2022-10-17T06:28:58;15.07;;;12.27;;
20146;SDS011;10234;50.856;15.716;2022-10-17T06:31:27;14.40;;;10.93;;
20146;SDS011;10234;50.856;15.716;2022-10-17T06:33:53;11.70;;;9.27;;
20146;SDS011;10234;50.856;15.716;2022-10-17T06:36:20;10.55;;;9.10;;
20146;SDS011;10234;50.856;15.716;2022-10-17T06:38:47;10.23;;;9.13;;
20146;SDS011;10234;50.856;15.716;2022-10-17T06:41:15;11.10;;;9.07;;
20146;SDS011;10234;50.856;15.716;2022-10-17T06:43:43;10.07;;;9.05;;
20146;SDS011;10234;50.856;15.716;2022-10-17T06:46:11;11.25;;;9.63;;
20146;SDS011;10234;50.856;15.716;2022-10-17T06:48:41;10.65;;;9.55;;
20146;SDS011;10234;50.856;15.716;2022-10-17T06:51:08;9.65;;;8.65;;
20146;SDS011;10234;50.856;15.716;2022-10-17T06:53:36;12.05;;;9.32;;
20146;SDS011;10234;50.856;15.716;2022-10-17T06:56:04;11.13;;;9.25;;
20146;SDS011;10234;50.856;15.716;2022-10-17T06:58:32;9.70;;;8.80;;
20146;SDS011;10234;50.856;15.716;2022-10-17T07:01:04;10.40;;;9.30;;
20146;SDS011;10234;50.856;15.716;2022-10-17T07:03:32;9.55;;;8.75;;
20146;SDS011;10234;50.856;15.716;2022-10-17T07:06:01;8.10;;;7.30;;
20146;SDS011;10234;50.856;15.716;2022-10-17T07:08:29;7.03;;;6.32;;
20146;SDS011;10234;50.856;15.716;2022-10-17T07:10:56;7.30;;;6.60;;
20146;SDS011;10234;50.856;15.716;2022-10-17T07:13:23;7.63;;;6.97;;
20146;SDS011;10234;50.856;15.716;2022-10-17T07:15:50;8.13;;;6.90;;
20146;SDS011;10234;50.856;15.716;2022-10-17T07:18:21;7.03;;;6.35;;
20146;SDS011;10234;50.856;15.716;2022-10-17T07:20:51;7.00;;;6.40;;
20146;SDS011;10234;50.856;15.716;2022-10-17T07:23:20;7.47;;;6.55;;
20146;SDS011;10234;50.856;15.716;2022-10-17T07:25:47;6.55;;;5.95;;
20146;SDS011;10234;50.856;15.716;2022-10-17T07:28:14;7.22;;;6.63;;
20146;SDS011;10234;50.856;15.716;2022-10-17T07:30:41;6.45;;;5.70;;
20146;SDS011;10234;50.856;15.716;2022-10-17T07:33:09;6.28;;;5.70;;
20146;SDS011;10234;50.856;15.716;2022-10-17T07:35:36;6.38;;;5.88;;
20146;SDS011;10234;50.856;15.716;2022-10-17T07:38:04;6.28;;;5.68;;
20146;SDS011;10234;50.856;15.716;2022-10-17T07:40:33;5.63;;;4.85;;
20146;SDS011;10234;50.856;15.716;2022-10-17T07:43:00;5.47;;;5.07;;
20146;SDS011;10234;50.856;15.716;2022-10-17T07:45:27;5.38;;;4.97;;
20146;SDS011;10234;50.856;15.716;2022-10-17T07:47:54;7.65;;;5.25;;
20146;SDS011;10234;50.856;15.716;2022-10-17T07:50:22;5.35;;;4.93;;
20146;SDS011;10234;50.856;15.716;2022-10-17T07:52:49;5.70;;;5.30;;
20146;SDS011;10234;50.856;15.716;2022-10-17T07:55:16;9.43;;;5.15;;
20146;SDS011;10234;50.856;15.716;2022-10-17T07:57:44;5.72;;;5.28;;
20146;SDS011;10234;50.856;15.716;2022-10-17T08:00:12;5.28;;;4.85;;
20146;SDS011;10234;50.856;15.716;2022-10-17T08:02:39;5.03;;;4.53;;
20146;SDS011;10234;50.856;15.716;2022-10-17T08:05:06;5.32;;;4.88;;
20146;SDS011;10234;50.856;15.716;2022-10-17T08:07:33;5.45;;;4.80;;
20146;SDS011;10234;50.856;15.716;2022-10-17T08:10:00;5.35;;;4.95;;
20146;SDS011;10234;50.856;15.716;2022-10-17T08:12:27;5.55;;;4.97;;
20146;SDS011;10234;50.856;15.716;2022-10-17T08:14:57;6.47;;;5.88;;
20146;SDS011;10234;50.856;15.716;2022-10-17T08:17:24;5.10;;;4.70;;
20146;SDS011;10234;50.856;15.716;2022-10-17T08:19:51;5.78;;;5.25;;
20146;SDS011;10234;50.856;15.716;2022-10-17T08:22:19;5.65;;;5.15;;
20146;SDS011;10234;50.856;15.716;2022-10-17T08:24:46;5.68;;;5.18;;
20146;SDS011;10234;50.856;15.716;2022-10-17T08:27:13;4.70;;;4.30;;
20146;SDS011;10234;50.856;15.716;2022-10-17T08:29:45;5.07;;;4.22;;
20146;SDS011;10234;50.856;15.716;2022-10-17T08:32:18;5.00;;;4.60;;
20146;SDS011;10234;50.856;15.716;2022-10-17T08:34:46;4.53;;;4.13;;
20146;SDS011;10234;50.856;15.716;2022-10-17T08:37:13;5.30;;;4.80;;
20146;SDS011;10234;50.856;15.716;2022-10-17T08:39:40;5.75;;;5.18;;
20146;SDS011;10234;50.856;15.716;2022-10-17T08:42:19;5.22;;;4.85;;
20146;SDS011;10234;50.856;15.716;2022-10-17T08:45:08;6.35;;;5.78;;
20146;SDS011;10234;50.856;15.716;2022-10-17T08:47:42;6.38;;;5.78;;
20146;SDS011;10234;50.856;15.716;2022-10-17T08:50:11;6.13;;;5.63;;
20146;SDS011;10234;50.856;15.716;2022-10-17T08:52:44;8.60;;;6.72;;
20146;SDS011;10234;50.856;15.716;2022-10-17T08:55:15;6.78;;;6.18;;
20146;SDS011;10234;50.856;15.716;2022-10-17T08:57:43;6.78;;;6.07;;
20146;SDS011;10234;50.856;15.716;2022-10-17T09:00:12;8.25;;;7.28;;
20146;SDS011;10234;50.856;15.716;2022-10-17T09:02:47;7.43;;;6.72;;
20146;SDS011;10234;50.856;15.716;2022-10-17T09:05:36;9.85;;;7.50;;
20146;SDS011;10234;50.856;15.716;2022-10-17T09:08:12;8.60;;;7.70;;
20146;SDS011;10234;50.856;15.716;2022-10-17T09:10:48;8.27;;;7.47;;
20146;SDS011;10234;50.856;15.716;2022-10-17T09:13:24;8.75;;;7.43;;
20146;SDS011;10234;50.856;15.716;2022-10-17T09:16:03;6.13;;;5.22;;
20146;SDS011;10234;50.856;15.716;2022-10-17T09:18:41;7.63;;;6.85;;
20146;SDS011;10234;50.856;15.716;2022-10-17T09:21:16;6.93;;;6.30;;
20146;SDS011;10234;50.856;15.716;2022-10-17T09:23:46;7.90;;;7.03;;
20146;SDS011;10234;50.856;15.716;2022-10-17T09:26:16;5.80;;;5.30;;
20146;SDS011;10234;50.856;15.716;2022-10-17T09:28:44;6.18;;;5.57;;
20146;SDS011;10234;50.856;15.716;2022-10-17T09:31:18;6.93;;;5.32;;
20146;SDS011;10234;50.856;15.716;2022-10-17T09:33:49;11.52;;;6.63;;
20146;SDS011;10234;50.856;15.716;2022-10-17T09:36:18;7.82;;;7.03;;
20146;SDS011;10234;50.856;15.716;2022-10-17T09:38:47;8.35;;;7.55;;
20146;SDS011;10234;50.856;15.716;2022-10-17T09:41:17;7.00;;;6.40;;
20146;SDS011;10234;50.856;15.716;2022-10-17T09:43:46;6.63;;;6.03;;
20146;SDS011;10234;50.856;15.716;2022-10-17T09:46:15;8.35;;;5.57;;
20146;SDS011;10234;50.856;15.716;2022-10-17T09:48:49;6.50;;;5.95;;
20146;SDS011;10234;50.856;15.716;2022-10-17T09:51:19;6.60;;;6.10;;
20146;SDS011;10234;50.856;15.716;2022-10-17T09:53:48;6.35;;;5.85;;
20146;SDS011;10234;50.856;15.716;2022-10-17T09:56:18;6.72;;;6.13;;
20146;SDS011;10234;50.856;15.716;2022-10-17T09:58:46;8.05;;;6.50;;
20146;SDS011;10234;50.856;15.716;2022-10-17T10:01:15;7.18;;;6.47;;
20146;SDS011;10234;50.856;15.716;2022-10-17T10:03:45;8.05;;;7.30;;
20146;SDS011;10234;50.856;15.716;2022-10-17T10:06:14;7.50;;;6.80;;
20146;SDS011;10234;50.856;15.716;2022-10-17T10:08:48;7.72;;;6.93;;
20146;SDS011;10234;50.856;15.716;2022-10-17T10:11:17;9.35;;;6.60;;
20146;SDS011;10234;50.856;15.716;2022-10-17T10:13:47;8.30;;;6.13;;
20146;SDS011;10234;50.856;15.716;2022-10-17T10:16:16;6.82;;;6.13;;
20146;SDS011;10234;50.856;15.716;2022-10-17T10:18:46;6.82;;;6.05;;
20146;SDS011;10234;50.856;15.716;2022-10-17T10:21:15;6.47;;;5.85;;
20146;SDS011;10234;50.856;15.716;2022-10-17T10:23:44;8.18;;;5.75;;
20146;SDS011;10234;50.856;15.716;2022-10-17T10:26:28;6.50;;;5.78;;
20146;SDS011;10234;50.856;15.716;2022-10-17T10:28:59;8.40;;;6.18;;
20146;SDS011;10234;50.856;15.716;2022-10-17T10:31:31;7.10;;;5.78;;
20146;SDS011;10234;50.856;15.716;2022-10-17T10:34:00;7.80;;;5.50;;
20146;SDS011;10234;50.856;15.716;2022-10-17T10:36:50;7.32;;;5.43;;
20146;SDS011;10234;50.856;15.716;2022-10-17T10:39:32;5.93;;;5.35;;
20146;SDS011;10234;50.856;15.716;2022-10-17T10:42:18;6.05;;;5.45;;
20146;SDS011;10234;50.856;15.716;2022-10-17T10:44:48;5.43;;;5.03;;
20146;SDS011;10234;50.856;15.716;2022-10-17T10:47:20;5.50;;;4.88;;
20146;SDS011;10234;50.856;15.716;2022-10-17T10:49:49;5.63;;;5.07;;
20146;SDS011;10234;50.856;15.716;2022-10-17T10:52:30;5.18;;;4.65;;
20146;SDS011;10234;50.856;15.716;2022-10-17T10:55:04;7.43;;;5.32;;
20146;SDS011;10234;50.856;15.716;2022-10-17T10:57:41;6.10;;;5.57;;
20146;SDS011;10234;50.856;15.716;2022-10-17T11:00:11;6.15;;;5.32;;
20146;SDS011;10234;50.856;15.716;2022-10-17T11:02:44;6.07;;;5.47;;
20146;SDS011;10234;50.856;15.716;2022-10-17T11:05:19;5.70;;;5.20;;
20146;SDS011;10234;50.856;15.716;2022-10-17T11:07:52;5.88;;;5.30;;
20146;SDS011;10234;50.856;15.716;2022-10-17T11:10:29;5.53;;;5.13;;
20146;SDS011;10234;50.856;15.716;2022-10-17T11:13:03;5.78;;;5.28;;
20146;SDS011;10234;50.856;15.716;2022-10-17T11:15:35;5.68;;;5.18;;
20146;SDS011;10234;50.856;15.716;2022-10-17T11:18:06;5.63;;;5.10;;
20146;SDS011;10234;50.856;15.716;2022-10-17T11:20:39;5.13;;;4.63;;
20146;SDS011;10234;50.856;15.716;2022-10-17T11:23:15;4.88;;;4.47;;
20146;SDS011;10234;50.856;15.716;2022-10-17T11:25:45;4.85;;;4.32;;
20146;SDS011;10234;50.856;15.716;2022-10-17T11:28:14;5.20;;;4.68;;
20146;SDS011;10234;50.856;15.716;2022-10-17T11:30:47;4.75;;;4.35;;
20146;SDS011;10234;50.856;15.716;2022-10-17T11:33:23;6.68;;;4.72;;
20146;SDS011;10234;50.856;15.716;2022-10-17T11:35:54;3.78;;;3.47;;
20146;SDS011;10234;50.856;15.716;2022-10-17T11:38:30;7.78;;;4.20;;
20146;SDS011;10234;50.856;15.716;2022-10-17T11:41:12;4.25;;;3.78;;
20146;SDS011;10234;50.856;15.716;2022-10-17T11:43:44;5.00;;;4.13;;
20146;SDS011;10234;50.856;15.716;2022-10-17T11:46:16;4.65;;;4.05;;
20146;SDS011;10234;50.856;15.716;2022-10-17T11:48:51;8.07;;;3.58;;
20146;SDS011;10234;50.856;15.716;2022-10-17T11:51:24;3.72;;;3.40;;
20146;SDS011;10234;50.856;15.716;2022-10-17T11:53:55;4.18;;;3.88;;
20146;SDS011;10234;50.856;15.716;2022-10-17T11:56:30;4.10;;;3.70;;
20146;SDS011;10234;50.856;15.716;2022-10-17T11:59:09;6.72;;;3.80;;
20146;SDS011;10234;50.856;15.716;2022-10-17T12:01:51;4.97;;;3.92;;
20146;SDS011;10234;50.856;15.716;2022-10-17T12:04:24;4.70;;;4.30;;
20146;SDS011;10234;50.856;15.716;2022-10-17T12:07:06;4.45;;;3.65;;
20146;SDS011;10234;50.856;15.716;2022-10-17T12:09:41;4.72;;;4.30;;
20146;SDS011;10234;50.856;15.716;2022-10-17T12:12:23;5.03;;;3.90;;
20146;SDS011;10234;50.856;15.716;2022-10-17T12:14:51;5.30;;;4.60;;
20146;SDS011;10234;50.856;15.716;2022-10-17T12:17:22;4.40;;;4.00;;
20146;SDS011;10234;50.856;15.716;2022-10-17T12:22:49;4.75;;;4.15;;
20146;SDS011;10234;50.856;15.716;2022-10-17T12:25:20;5.07;;;4.10;;
20146;SDS011;10234;50.856;15.716;2022-10-17T12:27:49;4.55;;;3.80;;
20146;SDS011;10234;50.856;15.716;2022-10-17T12:30:20;4.25;;;3.85;;
20146;SDS011;10234;50.856;15.716;2022-10-17T12:32:53;4.88;;;3.55;;
20146;SDS011;10234;50.856;15.716;2022-10-17T12:35:23;4.72;;;3.60;;
20146;SDS011;10234;50.856;15.716;2022-10-17T12:40:51;4.00;;;3.55;;
20146;SDS011;10234;50.856;15.716;2022-10-17T12:52:18;4.22;;;3.47;;
20146;SDS011;10234;50.856;15.716;2022-10-17T12:54:49;4.32;;;3.92;;
20146;SDS011;10234;50.856;15.716;2022-10-17T12:57:32;4.28;;;3.20;;
20146;SDS011;10234;50.856;15.716;2022-10-17T13:00:04;4.38;;;3.70;;
20146;SDS011;10234;50.856;15.716;2022-10-17T13:02:41;3.42;;;3.13;;
20146;SDS011;10234;50.856;15.716;2022-10-17T13:05:10;3.55;;;3.00;;
20146;SDS011;10234;50.856;15.716;2022-10-17T13:07:41;3.58;;;3.28;;
20146;SDS011;10234;50.856;15.716;2022-10-17T13:10:16;3.20;;;2.90;;
20146;SDS011;10234;50.856;15.716;2022-10-17T13:12:46;4.43;;;3.58;;
20146;SDS011;10234;50.856;15.716;2022-10-17T13:15:15;4.32;;;3.88;;
20146;SDS011;10234;50.856;15.716;2022-10-17T13:17:44;3.88;;;3.47;;
20146;SDS011;10234;50.856;15.716;2022-10-17T13:20:17;5.53;;;4.60;;
20146;SDS011;10234;50.856;15.716;2022-10-17T13:22:45;4.18;;;3.42;;
20146;SDS011;10234;50.856;15.716;2022-10-17T13:25:13;4.15;;;3.50;;
20146;SDS011;10234;50.856;15.716;2022-10-17T13:27:41;4.60;;;3.70;;
20146;SDS011;10234;50.856;15.716;2022-10-17T13:30:23;4.15;;;3.75;;
20146;SDS011;10234;50.856;15.716;2022-10-17T13:32:52;3.80;;;3.15;;
20146;SDS011;10234;50.856;15.716;2022-10-17T13:35:24;7.85;;;5.55;;
20146;SDS011;10234;50.856;15.716;2022-10-17T13:37:53;6.38;;;3.38;;
20146;SDS011;10234;50.856;15.716;2022-10-17T13:40:22;4.10;;;3.70;;
20146;SDS011;10234;50.856;15.716;2022-10-17T13:42:50;4.40;;;4.00;;
20146;SDS011;10234;50.856;15.716;2022-10-17T13:45:19;5.40;;;4.18;;
20146;SDS011;10234;50.856;15.716;2022-10-17T13:47:54;3.80;;;3.50;;
20146;SDS011;10234;50.856;15.716;2022-10-17T13:50:24;6.18;;;4.20;;
20146;SDS011;10234;50.856;15.716;2022-10-17T13:55:55;5.25;;;3.55;;
20146;SDS011;10234;50.856;15.716;2022-10-17T13:58:24;4.47;;;3.88;;
20146;SDS011;10234;50.856;15.716;2022-10-17T14:00:52;3.65;;;3.20;;
20146;SDS011;10234;50.856;15.716;2022-10-17T14:03:22;5.13;;;3.83;;
20146;SDS011;10234;50.856;15.716;2022-10-17T14:08:50;4.93;;;4.13;;
20146;SDS011;10234;50.856;15.716;2022-10-17T14:11:24;5.50;;;5.00;;
20146;SDS011;10234;50.856;15.716;2022-10-17T14:13:55;6.57;;;4.82;;
20146;SDS011;10234;50.856;15.716;2022-10-17T14:16:24;5.53;;;5.03;;
20146;SDS011;10234;50.856;15.716;2022-10-17T14:18:54;9.25;;;5.82;;
20146;SDS011;10234;50.856;15.716;2022-10-17T14:21:21;5.65;;;4.95;;
20146;SDS011;10234;50.856;15.716;2022-10-17T14:23:50;10.60;;;5.07;;
20146;SDS011;10234;50.856;15.716;2022-10-17T14:26:18;6.13;;;5.22;;
20146;SDS011;10234;50.856;15.716;2022-10-17T14:28:47;6.07;;;5.10;;
20146;SDS011;10234;50.856;15.716;2022-10-17T14:31:22;5.60;;;5.10;;
20146;SDS011;10234;50.856;15.716;2022-10-17T14:33:51;5.97;;;4.97;;
20146;SDS011;10234;50.856;15.716;2022-10-17T14:36:20;6.53;;;5.38;;
20146;SDS011;10234;50.856;15.716;2022-10-17T14:38:57;5.78;;;5.03;;
20146;SDS011;10234;50.856;15.716;2022-10-17T14:41:25;7.97;;;5.65;;
20146;SDS011;10234;50.856;15.716;2022-10-17T14:43:54;8.70;;;5.53;;
20146;SDS011;10234;50.856;15.716;2022-10-17T14:46:31;6.10;;;4.95;;
20146;SDS011;10234;50.856;15.716;2022-10-17T14:49:05;6.45;;;5.72;;
20146;SDS011;10234;50.856;15.716;2022-10-17T14:51:33;5.97;;;5.38;;
20146;SDS011;10234;50.856;15.716;2022-10-17T14:54:02;6.32;;;5.03;;
20146;SDS011;10234;50.856;15.716;2022-10-17T14:56:39;8.68;;;5.63;;
20146;SDS011;10234;50.856;15.716;2022-10-17T14:59:07;8.05;;;5.50;;
20146;SDS011;10234;50.856;15.716;2022-10-17T15:01:35;6.90;;;5.63;;
20146;SDS011;10234;50.856;15.716;2022-10-17T15:04:02;6.70;;;5.90;;
20146;SDS011;10234;50.856;15.716;2022-10-17T15:06:31;7.13;;;5.78;;
20146;SDS011;10234;50.856;15.716;2022-10-17T15:08:59;8.05;;;6.30;;
20146;SDS011;10234;50.856;15.716;2022-10-17T15:11:26;6.55;;;5.88;;
20146;SDS011;10234;50.856;15.716;2022-10-17T15:13:54;7.03;;;5.95;;
20146;SDS011;10234;50.856;15.716;2022-10-17T15:16:24;11.70;;;6.90;;